White Mountain Summit Weather observations

Data are for 10 minute period ending at time listed.
 Day   Time   Solar   Ave.   Ave.  Ave.  Vector    Max.    Baro.  
  of    of     Rad.   Air    Rel.  Wind   Wind     Wind   Press.  
Year   Day            Temp.  Hum.  Speed  Dir.     Gust           
2015   (PST)   W/m2    F      %     mph   deg.      mph     mb.   
-------------------------------------------------------------------
  89    5:10    0.0    22   43.6    14     97.8    16.5   999.0 
  89    5:20    0.0    22   43.2    15     95.0    18.8   999.0 
  89    5:30    0.0    22   42.9    17     96.8    21.2   999.0 
  89    5:40    0.0    21   42.8    16     91.6    21.2   999.0 
  89    5:50    0.0    22   43.0    17     98.9    23.5   999.0 
  89    6:00    0.0    22   42.8    18    100.0    21.2   999.0 
  89    6:10    0.0    22   42.7    19    100.6    23.5   999.0 
  89    6:20    0.0    22   43.6    17     99.3    21.2   999.0 
  89    6:30    0.0    22   43.7    12     93.4    18.8   999.0 
  89    6:40    0.0    22   43.7    12     98.6    18.8   999.0 
  89    6:50    0.0    23   43.7    14    102.3    21.2   999.0 
  89    7:00    0.0    24   42.3    16    106.3    23.5   999.0 
  89    7:10    0.0    24   40.0    18    103.0    23.5   999.0 
  89    7:20    0.0    24   39.2    14    102.5    18.8   999.0 
  89    7:30    0.0    24   38.7    13     96.3    18.8   999.0 
  89    7:40    0.0    25   39.0    10    101.1    18.8   999.0 
  89    7:50    0.0    25   39.5     8     86.5    18.8   999.0 
  89    8:00    0.0    26   38.5    13    103.0    18.8   999.0 
  89    8:10    0.0    26   38.4    12    100.6    18.8   999.0 
  89    8:20    0.0    27   38.1    11    108.4    18.8   999.0 
  89    8:30    0.0    28   38.1     9    112.0    14.1   999.0 
  89    8:40    0.0    28   36.7     9    120.8    14.1   999.0 
  89    8:50    0.0    29   37.0     8    126.7    11.8   999.0 
  89    9:00    0.0    30   35.9     8    128.6    11.8   999.0 
  89    9:10    0.0    31   35.0     8    144.3    11.8   999.0 
  89    9:20    0.0    31   34.5     9    142.8    11.8   999.0 
  89    9:30    0.0    31   34.4     7    149.4    11.8   999.0 
  89    9:40    0.0    32   32.0     7    145.6     9.4   999.0 
  89    9:50    0.0    32   31.2     8    157.8    16.5   999.0 
  89   10:00    0.0    33   32.0     8    145.8    14.1   999.0 
  89   10:10    0.0    34   31.7     7    151.6     9.4   999.0 
  89   10:20    0.0    34   30.9     9    145.4    14.1   999.0 
  89   10:30    0.0    34   31.4     9    145.1    14.1   999.0 
  89   10:40    0.0    35   31.5     9    144.9    14.1   999.0 
  89   10:50    0.0    36   30.6     7    146.4    11.8   999.0 
  89   11:00    0.0    35   30.4     6    166.2     9.4   999.0 
  89   11:10    0.0    36   31.3     4    242.0     7.1   999.0 
  89   11:20    0.0    36   30.5     5    230.3     9.4   999.0 
  89   11:30    0.0    36   30.0    10    146.3    14.1   999.0 
  89   11:40    0.0    37   29.0     7    159.2    11.8   999.0 
  89   11:50    0.0    38   28.4    10    147.1    14.1   999.0 
  89   12:00    0.0    38   27.7     6    138.5    14.1   999.0 
  89   12:10    0.0    38   28.5     6    262.3     9.4   999.0 
  89   12:20    0.0    38   28.6     7    246.6    11.8   999.0 
  89   12:30    0.0    37   29.3     9    240.3    16.5   999.0 
  89   12:40    0.0    38   29.4     9    255.5    14.1   999.0 
  89   12:50    0.0    37   29.7    10    249.3    16.5   999.0 
  89   13:00    0.0    39   28.5    10    262.8    16.5   999.0 
  89   13:10    0.0    41   27.8     9    270.2    16.5   999.0 
  89   13:20    0.0    39   27.8    11    258.0    18.8   999.0 
  89   13:30    0.0    37   29.0     9    248.2    14.1   999.0 
  89   13:40    0.0    38   28.8     9    252.5    16.5   999.0 
  89   13:50    0.0    39   27.7    12    254.6    18.8   999.0 
  89   14:00    0.0    41   26.2    11    262.9    16.5   999.0 
  89   14:10    0.0    39   25.5    11    249.8    16.5   999.0 
  89   14:20    0.0    40   25.1    13    260.7    21.2   999.0 
  89   14:30    0.0    41   23.1    13    260.6    21.2   999.0 
  89   14:40    0.0    41   22.3    14    264.2    21.2   999.0 
  89   14:50    0.0    41   22.0    13    268.3    18.8   999.0 
  89   15:00    0.0    40   21.2    14    261.3    21.2   999.0 
  89   15:10    0.0    42   21.6    20    267.0    30.6   999.0 
  89   15:20    0.0    41   20.6    20    267.1    33.0   999.0 
  89   15:30    0.0    41   21.5    26    265.0    33.0   999.0 
  89   15:40    0.0    40   21.9    25    264.0    35.3   999.0 
  89   15:50    0.0    41   21.4    22    269.2    30.6   999.0 
  89   16:00    0.0    39   22.6    24    268.5    30.6   999.0 
  89   16:10    0.0    39   23.5    24    267.5    35.3   999.0 
  89   16:20    0.0    38   26.2    25    268.7    35.3   999.0 
  89   16:30    0.0    38   25.0    24    266.7    33.0   999.0 
  89   16:40    0.0    38   25.5    22    267.8    30.6   999.0 
  89   16:50    0.0    38   26.4    25    266.7    30.6   999.0 
  89   17:00    0.0    38   26.4    25    267.3    35.3   999.0 
  89   17:10    0.0    37   27.0    27    266.9    35.3   999.0 
  89   17:20    0.0    37   27.5    23    266.4    33.0   999.0 
  89   17:30    0.0    36   28.6    23    266.7    28.2   999.0 
  89   17:40    0.0    36   29.5    23    265.7    28.2   999.0 
  89   17:50   36.0    36   30.9    24    266.0    30.6   999.0 
  89   18:00   40.0    34   33.1    25    266.3    30.6   999.0 
  89   18:10   11.0    34   33.8    22    267.0    28.2   999.0 
  89   18:20    0.0    33   35.6    22    267.8    28.2   999.0 
  89   18:30    0.0    33   36.5    22    267.2    25.9   999.0 
  89   18:40    0.0    32   37.8    22    266.1    28.2   999.0 
  89   18:50    0.0    32   38.4    24    265.9    30.6   999.0 
  89   19:00    0.0    31   38.9    22    265.9    25.9   999.0 
  89   19:10    0.0    30   39.6    21    268.2    23.5   999.0 
  89   19:20    0.0    30   41.0    20    267.9    25.9   999.0 
  89   19:30    0.0    30   41.2    17    265.4    18.8   999.0 
  89   19:40    0.0    30   41.6    17    266.8    21.2   999.0 
  89   19:50    0.0    30   42.0    17    261.1    21.2   999.0 
  89   20:00    0.0    29   42.0    15    263.6    18.8   999.0 
  89   20:10    0.0    29   42.3    14    263.3    18.8   999.0 
  89   20:20    0.0    29   42.3    14    262.6    18.8   999.0 
  89   20:30    0.0    28   41.7    11    246.9    16.5   999.0 
  89   20:40    0.0    27   44.0    10    224.8    11.8   999.0 
  89   20:50    1.0    26   46.2     8    187.1    11.8   999.0 
  89   21:00    3.0    26   47.4     7    199.2    11.8   999.0 
  89   21:10    3.0    25   50.6    11    214.0    16.5   999.0 
  89   21:20    3.0    25   52.7    10    203.7    14.1   999.0 
  89   21:30    3.0    25   55.5    10    213.5    11.8   999.0 
  89   21:40    3.0    25   56.5     9    212.1    14.1   999.0 
  89   21:50    3.0    24   56.3     8    209.0     9.4   999.0 
  89   22:00    3.0    25   58.5     6    208.1     7.1   999.0 
  89   22:10    3.0    25   57.7     3    211.2     7.1   999.0 
  89   22:20    3.0    26   47.9     1    252.5     4.7   999.0 
  89   22:30    3.0    27   40.3     2    262.2     4.7   999.0 
  89   22:40    3.0    28   42.3     7    268.0     9.4   999.0 
  89   22:50    3.0    28   43.9     6    267.2     7.1   999.0 
  89   23:00    1.0    27   43.2     4    239.5     7.1   999.0 
  89   23:10    3.0    26   40.6     4    241.6     9.4   999.0 
  89   23:20    3.0    27   44.0     6    236.3     9.4   999.0 
  89   23:30    3.0    26   48.8     6    230.6     9.4   999.0 
  89   23:40    3.0    26   50.2     6    246.8     9.4   999.0 
  89   23:50    3.0    26   52.1     8    235.6    11.8   999.0 
  90    0:00    3.0    25   56.0    10    220.2    11.8   999.0 
  90    0:10    3.0    24   56.8     9    219.7    11.8   999.0 
  90    0:20    5.0    25   57.1    10    227.1    14.1   999.0 
  90    0:30    5.0    24   59.8    11    221.3    14.1   999.0 
  90    0:40    6.0    25   52.9    11    219.5    14.1   999.0 
  90    0:50    6.0    25   56.2    11    209.2    14.1   999.0 
  90    1:00    6.0    24   59.8    10    203.6    14.1   999.0 
  90    1:10    6.0    24   60.5    14    206.8    16.5   999.0 
  90    1:20    6.0    24   60.9    13    205.6    16.5   999.0 
  90    1:30    7.0    24   61.9    16    212.0    18.8   999.0 
  90    1:40    8.0    24   58.2    17    214.7    21.2   999.0 
  90    1:50    6.0    24   59.0    17    213.7    18.8   999.0 
  90    2:00    6.0    24   61.3    17    213.5    18.8   999.0 
  90    2:10    6.0    24   61.6    18    215.5    21.2   999.0 
  90    2:20    6.0    24   62.5    20    219.5    23.5   999.0 
  90    2:30   19.0    24   66.6    20    220.5    23.5   999.0 
  90    2:40   30.0    24   68.2    21    223.1    23.5   999.0 
  90    2:50   33.0    23   67.8    23    222.0    25.9   999.0 
  90    3:00   34.0    24   64.9    23    221.8    25.9   999.0 
  90    3:10   35.0    23   68.0    22    222.9    25.9   999.0 
  90    3:20   35.0    23   63.3    21    225.7    23.5   999.0 
  90    3:30   34.0    23   61.2    22    237.4    25.9   999.0 
  90    3:40   34.0    24   58.9    25    261.3    30.6   999.0 
  90    3:50   31.0    24   59.7    23    261.7    28.2   999.0 
  90    4:00   30.0    23   61.6    25    265.3    28.2   999.0 
  90    4:10   30.0    23   60.6    25    265.2    28.2   999.0 
  90    4:20   34.0    23   59.1    27    254.9    30.6   999.0 
  90    4:30   37.0    23   61.7    28    255.0    30.6   999.0 
  90    4:40   36.0    23   63.4    28    253.9    33.0   999.0 
  90    4:50   37.0    23   63.7    30    254.4    33.0   999.0 
  90    5:00   34.0    23   60.0    30    264.5    33.0   999.0 

Return to White Mountain graphs page.


Western Regional Climate Center,wrcc@dri.edu